Time;durP1;ratioP1;P1;durP2;ratioP2;P2;SDS_P1;SDS_P2;PMS_P1;PMS_P2;Temp;Humidity;BMP_temperature;BMP_pressure;BME280_temperature;BME280_humidity;BME280_pressure;Samples;Min_cycle;Max_cycle;Signal;HPM_P1;HPM_P2
2022/02/11 00:00:09;;;;;;;21.50;3.20;;;;;;;5.80;71.58;102121.13;5040443;28;20032;-48
2022/02/11 00:07:55;;;;;;;17.48;2.33;;;;;;;5.73;72.59;102125.22;5031586;28;20056;-48
2022/02/11 00:10:21;;;;;;;19.67;2.53;;;;;;;5.79;72.84;102138.09;5037026;28;20037;-47
2022/02/11 00:12:46;;;;;;;16.00;2.45;;;;;;;5.79;73.32;102135.41;5041377;28;20021;-47
2022/02/11 00:17:50;;;;;;;16.95;2.33;;;;;;;5.79;73.41;102127.41;5032954;28;20167;-49
2022/02/11 00:20:16;;;;;;;20.67;2.65;;;;;;;5.80;73.46;102129.13;5042724;28;20047;-47
2022/02/11 00:22:42;;;;;;;22.65;3.17;;;;;;;5.80;73.71;102125.59;5033175;28;20025;-47
2022/02/11 00:25:07;;;;;;;29.00;3.15;;;;;;;5.78;74.04;102132.88;5033851;28;20408;-47
2022/02/11 00:30:44;;;;;;;17.70;2.42;;;;;;;5.76;73.31;102114.28;5043677;28;20127;-47
2022/02/11 00:35:47;;;;;;;22.40;2.70;;;;;;;5.81;73.94;102127.31;5032694;28;20052;-46
2022/02/11 00:38:19;;;;;;;18.67;2.77;;;;;;;5.80;74.84;102125.59;5045588;28;20558;-47
2022/02/11 01:04:45;;;;;;;25.88;3.65;;;;;;;5.83;76.40;102112.84;5037625;28;20037;-48
2022/02/11 01:07:10;;;;;;;26.63;3.47;;;;;;;5.88;76.33;102121.34;5031598;28;20038;-47
2022/02/11 01:09:36;;;;;;;24.95;2.78;;;;;;;5.85;77.72;102110.06;5041372;28;20112;-50
2022/02/11 01:12:04;;;;;;;21.27;2.80;;;;;;;5.84;78.36;102090.50;5043412;28;20501;-49
2022/02/11 01:14:39;;;;;;;;;;;;;;;5.78;79.14;102125.72;5047541;28;20048;-49
2022/02/11 01:17:14;;;;;;;27.42;3.15;;;;;;;5.72;82.17;102120.84;5048301;28;20259;-47
2022/02/11 01:30:34;;;;;;;26.23;3.38;;;;;;;5.71;80.81;102124.47;5034221;28;20130;-46
2022/02/11 01:51:40;;;;;;;23.27;3.08;;;;;;;5.85;77.50;102145.66;5035098;28;20087;-49
2022/02/11 01:56:56;;;;;;;35.53;3.60;;;;;;;5.92;77.06;102136.19;5043820;28;20051;-49
2022/02/11 02:16:15;;;;;;;24.13;2.28;;;;;;;5.92;75.38;102141.53;5053962;28;20052;-50
2022/02/11 02:19:22;;;;;;;24.73;2.42;;;;;;;5.92;76.36;102149.56;5049875;28;20028;-48
2022/02/11 02:32:25;;;;;;;24.90;3.25;;;;;;;5.84;76.88;102177.81;5038933;28;20075;-48
2022/02/11 02:59:36;;;;;;;26.95;2.65;;;;;;;5.55;78.47;102198.75;5050102;28;20071;-46
2022/02/11 03:02:11;;;;;;;19.27;2.05;;;;;;;5.51;78.47;102198.13;5042502;28;20029;-47
2022/02/11 03:16:18;;;;;;;35.70;3.85;;;;;;;5.56;77.70;102203.97;5049652;28;20099;-49
2022/02/11 03:56:44;;;;;;;52.22;6.75;;;;;;;5.40;75.96;102257.69;5040250;28;20431;-47
2022/02/11 04:08:15;;;;;;;38.10;4.18;;;;;;;5.38;76.07;102272.94;5052086;28;20109;-50
2022/02/11 04:24:50;;;;;;;;;;;;;;;5.62;72.11;102323.69;5034885;28;20075;-47
2022/02/11 04:56:39;;;;;;;33.67;3.20;;;;;;;5.22;73.50;102387.16;5034944;28;20148;-48
2022/02/11 05:01:49;;;;;;;33.42;3.47;;;;;;;5.20;74.19;102402.41;5045019;28;20052;-48
2022/02/11 05:04:14;;;;;;;37.45;4.03;;;;;;;5.23;73.36;102407.53;5036393;28;20018;-47
2022/02/11 05:06:39;;;;;;;35.78;3.97;;;;;;;5.24;73.48;102398.59;5043707;28;20500;-45
2022/02/11 05:09:05;;;;;;;27.42;3.75;;;;;;;5.31;72.90;102413.19;5047249;28;20479;-46
2022/02/11 05:11:30;;;;;;;31.00;3.28;;;;;;;5.38;72.70;102409.13;5048201;28;20033;-49
2022/02/11 05:13:55;;;;;;;30.33;3.65;;;;;;;5.38;72.21;102417.13;5045616;28;20029;-46
2022/02/11 05:16:21;;;;;;;34.83;4.25;;;;;;;5.37;72.87;102430.56;5047958;28;20037;-46
2022/02/11 05:18:46;;;;;;;36.88;4.00;;;;;;;5.32;73.62;102422.91;5047830;28;20067;-45
2022/02/11 05:21:11;;;;;;;37.35;4.53;;;;;;;5.37;74.26;102439.47;5046830;28;20036;-45
2022/02/11 05:23:37;;;;;;;34.35;3.70;;;;;;;5.32;74.63;102441.59;5047836;28;20060;-46
2022/02/11 05:26:02;;;;;;;37.10;4.10;;;;;;;5.35;75.82;102441.38;5045563;28;20060;-47
2022/02/11 05:28:28;;;;;;;38.55;4.40;;;;;;;5.41;75.58;102459.63;5048539;28;20036;-47
2022/02/11 05:30:53;;;;;;;29.50;4.35;;;;;;;5.46;74.71;102462.81;5045233;28;20135;-48
2022/02/11 05:33:20;;;;;;;25.95;3.35;;;;;;;5.38;72.65;102464.34;5045193;28;20041;-46
2022/02/11 05:35:46;;;;;;;21.15;3.13;;;;;;;5.25;72.89;102485.69;5046351;28;20523;-48
2022/02/11 05:38:11;;;;;;;17.67;3.08;;;;;;;5.15;72.72;102484.63;5048481;28;20115;-48
2022/02/11 05:40:37;;;;;;;23.15;3.17;;;;;;;5.02;73.84;102498.81;5048880;28;20028;-47
2022/02/11 05:43:02;;;;;;;27.55;3.40;;;;;;;4.90;74.54;102489.00;5048266;28;20022;-49
2022/02/11 05:45:27;;;;;;;26.95;3.17;;;;;;;4.89;75.49;102489.06;5041687;28;20519;-47
2022/02/11 05:47:53;;;;;;;20.95;2.65;;;;;;;4.77;77.35;102501.44;5052213;28;20354;-48
2022/02/11 05:50:18;;;;;;;30.17;2.92;;;;;;;4.71;77.19;102496.50;5050315;28;20033;-46
2022/02/11 05:52:43;;;;;;;29.67;2.90;;;;;;;4.65;77.94;102499.59;5047431;28;20048;-47
2022/02/11 05:55:09;;;;;;;30.52;4.28;;;;;;;4.61;78.23;102496.28;5045629;28;20036;-47
2022/02/11 05:57:34;;;;;;;42.42;3.35;;;;;;;4.56;78.84;102496.59;5042150;28;20557;-48
2022/02/11 06:00:01;;;;;;;36.53;5.10;;;;;;;4.60;79.70;102510.56;5041885;28;20119;-48
2022/02/11 06:02:27;;;;;;;35.88;4.15;;;;;;;4.64;79.92;102513.91;5047153;28;20200;-48
2022/02/11 06:04:52;;;;;;;49.80;4.78;;;;;;;4.73;79.57;102510.59;5044154;28;20032;-47
2022/02/11 06:07:17;;;;;;;37.30;3.80;;;;;;;4.76;79.70;102516.56;5037440;28;20120;-47
2022/02/11 06:09:43;;;;;;;35.35;4.57;;;;;;;4.85;78.94;102517.78;5045071;28;20028;-47
2022/02/11 06:12:08;;;;;;;38.92;5.68;;;;;;;4.93;77.86;102518.13;5050562;28;20037;-45
2022/02/11 06:14:36;;;;;;;43.15;6.10;;;;;;;5.02;76.30;102516.63;5049144;28;20036;-47
2022/02/11 06:17:02;;;;;;;46.15;4.90;;;;;;;5.00;76.30;102529.22;5053161;28;20471;-49
2022/02/11 06:19:27;;;;;;;61.90;5.15;;;;;;;5.03;75.42;102524.53;5053909;28;20036;-48
2022/02/11 06:21:52;;;;;;;38.63;5.07;;;;;;;5.07;75.13;102535.84;5054169;28;20029;-48
2022/02/11 06:24:18;;;;;;;58.05;4.45;;;;;;;5.05;75.27;102535.09;5051734;28;20033;-48
2022/02/11 06:26:43;;;;;;;48.55;4.75;;;;;;;4.99;74.81;102544.38;5053653;28;20020;-47
2022/02/11 06:29:08;;;;;;;46.78;4.72;;;;;;;4.96;75.08;102549.94;5053507;28;20033;-48
2022/02/11 06:31:34;;;;;;;39.60;5.00;;;;;;;5.02;74.59;102557.50;5051713;28;20032;-49
2022/02/11 06:33:59;;;;;;;43.22;4.40;;;;;;;4.99;75.03;102571.06;5053261;28;20476;-47
2022/02/11 06:36:25;;;;;;;39.10;3.83;;;;;;;5.02;73.87;102578.84;5052466;28;20064;-48
2022/02/11 06:38:51;;;;;;;34.72;3.28;;;;;;;4.97;73.89;102585.47;5053873;28;20071;-47
2022/02/11 06:41:16;;;;;;;49.40;4.20;;;;;;;4.91;74.04;102589.41;5053187;28;20029;-49
2022/02/11 06:43:41;;;;;;;42.60;5.63;;;;;;;4.94;74.30;102599.00;5052974;28;20120;-49
2022/02/11 06:46:07;;;;;;;45.45;4.28;;;;;;;4.89;75.11;102596.63;5052862;28;20478;-45
2022/02/11 06:48:32;;;;;;;37.20;4.40;;;;;;;4.83;75.24;102613.06;5049250;28;20029;-46
2022/02/11 06:50:58;;;;;;;31.75;4.05;;;;;;;4.91;75.22;102623.22;5046438;28;20064;-46
2022/02/11 06:53:24;;;;;;;40.67;4.63;;;;;;;4.90;74.92;102637.50;5053546;28;20029;-46
2022/02/11 06:55:50;;;;;;;47.83;4.75;;;;;;;4.94;74.58;102642.56;5050449;28;20040;-46
2022/02/11 06:58:16;;;;;;;33.80;3.72;;;;;;;4.94;72.83;102645.22;5050381;28;20037;-47
2022/02/11 07:00:45;;;;;;;33.05;3.83;;;;;;;4.89;72.68;102639.31;5049010;28;20029;-46
2022/02/11 07:03:12;;;;;;;42.85;5.03;;;;;;;4.84;72.87;102668.13;5051180;28;20025;-45
2022/02/11 07:05:38;;;;;;;29.15;3.85;;;;;;;4.83;72.24;102669.09;5047408;28;20479;-45
2022/02/11 07:08:03;;;;;;;28.83;3.25;;;;;;;4.87;72.79;102667.94;5048226;28;20041;-46
2022/02/11 07:10:29;;;;;;;29.02;3.42;;;;;;;4.89;72.52;102674.00;5049722;28;20519;-46
2022/02/11 07:12:54;;;;;;;40.33;4.65;;;;;;;4.87;72.97;102689.28;5047703;28;20070;-46
2022/02/11 07:15:19;;;;;;;31.10;3.47;;;;;;;4.82;73.36;102686.06;5048630;28;20124;-46
2022/02/11 07:17:45;;;;;;;32.75;3.65;;;;;;;4.80;73.16;102690.63;5050296;28;20025;-46
2022/02/11 07:20:11;;;;;;;38.78;4.55;;;;;;;4.81;73.82;102690.50;5050496;28;20105;-45
2022/02/11 07:22:37;;;;;;;30.23;4.03;;;;;;;4.86;73.60;102703.56;5050075;28;20367;-46
2022/02/11 07:25:07;;;;;;;39.70;3.97;;;;;;;4.88;72.78;102712.34;5048028;28;20116;-46
2022/02/11 07:27:33;;;;;;;46.03;5.57;;;;;;;4.89;72.40;102708.69;5049354;28;20498;-50
2022/02/11 07:29:58;;;;;;;51.85;7.80;;;;;;;4.91;71.46;102716.63;5048655;28;20041;-48
2022/02/11 07:32:25;;;;;;;43.38;4.75;;;;;;;4.93;71.21;102712.03;5048841;28;20688;-47
2022/02/11 07:34:51;;;;;;;33.35;3.97;;;;;;;4.94;71.29;102713.75;5051275;28;20033;-47
2022/02/11 07:37:17;;;;;;;30.80;3.50;;;;;;;4.94;71.83;102719.06;5047784;28;20033;-47
2022/02/11 07:39:42;;;;;;;26.80;2.88;;;;;;;4.98;72.25;102717.94;5045749;28;20086;-46
2022/02/11 07:42:08;;;;;;;32.40;3.65;;;;;;;4.98;71.84;102737.47;5052511;28;20433;-47
2022/02/11 07:44:33;;;;;;;33.25;3.65;;;;;;;5.00;71.86;102745.34;5052073;28;20040;-45
2022/02/11 07:46:58;;;;;;;32.10;4.22;;;;;;;5.09;72.46;102749.25;5044588;28;20021;-46
2022/02/11 07:49:24;;;;;;;35.67;3.47;;;;;;;5.29;71.23;102756.81;5047010;28;20029;-49
2022/02/11 07:51:49;;;;;;;43.42;3.72;;;;;;;5.42;69.55;102754.19;5047440;28;20075;-46
2022/02/11 07:54:14;;;;;;;41.25;3.80;;;;;;;5.43;69.26;102755.94;5047943;28;20127;-47
2022/02/11 07:56:40;;;;;;;28.50;3.85;;;;;;;5.44;68.86;102760.28;5049330;28;20044;-46
2022/02/11 07:59:05;;;;;;;51.65;4.55;;;;;;;5.44;69.10;102773.66;5047902;28;20115;-48
2022/02/11 08:01:30;;;;;;;48.03;3.55;;;;;;;5.36;69.38;102782.16;5046685;28;20029;-48
2022/02/11 08:03:56;;;;;;;40.28;3.83;;;;;;;5.43;69.25;102788.81;5051152;28;20066;-47
2022/02/11 08:06:21;;;;;;;34.40;4.43;;;;;;;5.42;69.12;102795.09;5051212;28;20041;-48
2022/02/11 08:08:47;;;;;;;38.53;4.07;;;;;;;5.44;67.58;102795.88;5051733;28;20043;-48
2022/02/11 08:11:12;;;;;;;38.80;4.55;;;;;;;5.50;66.26;102800.81;5051482;28;20024;-47
2022/02/11 08:13:38;;;;;;;36.22;4.05;;;;;;;5.43;65.53;102814.66;5051507;28;20410;-47
2022/02/11 08:16:05;;;;;;;33.45;2.92;;;;;;;5.38;62.78;102825.66;5048793;28;20390;-49
2022/02/11 08:18:30;;;;;;;34.53;2.97;;;;;;;5.33;62.15;102827.75;5048698;28;20120;-48
2022/02/11 08:20:56;;;;;;;26.15;2.88;;;;;;;5.37;62.14;102841.75;5049736;28;20447;-48
2022/02/11 08:23:22;;;;;;;26.73;3.15;;;;;;;5.44;60.62;102846.59;5050327;28;20021;-48
2022/02/11 08:25:47;;;;;;;21.27;2.47;;;;;;;6.04;60.73;102852.53;5051245;28;20108;-48
2022/02/11 08:28:13;;;;;;;21.75;2.78;;;;;;;6.78;58.07;102854.53;5047336;28;20104;-48
2022/02/11 08:30:39;;;;;;;35.58;3.75;;;;;;;7.77;53.84;102863.53;5051184;28;20109;-47
2022/02/11 08:33:04;;;;;;;24.10;2.67;;;;;;;8.57;51.90;102875.28;5047340;28;20119;-48
2022/02/11 08:35:30;;;;;;;23.73;2.63;;;;;;;9.10;50.51;102879.25;5045498;28;20035;-48
2022/02/11 08:37:55;;;;;;;26.83;3.08;;;;;;;9.63;49.76;102888.34;5051276;28;20112;-49
2022/02/11 08:40:20;;;;;;;31.38;3.05;;;;;;;10.16;47.56;102884.88;5050880;28;20059;-49
2022/02/11 08:42:46;;;;;;;25.10;2.80;;;;;;;10.58;43.12;102884.94;5050620;28;20037;-47
2022/02/11 08:45:11;;;;;;;20.50;2.67;;;;;;;11.30;41.92;102888.56;5048366;28;20032;-47
2022/02/11 08:47:38;;;;;;;15.52;2.70;;;;;;;11.40;41.71;102889.41;5048814;28;20467;-48
2022/02/11 08:50:05;;;;;;;25.03;3.60;;;;;;;11.58;41.14;102893.16;5048139;28;20120;-49
2022/02/11 08:52:30;;;;;;;19.15;2.85;;;;;;;11.84;41.16;102904.28;5048486;28;20185;-48
2022/02/11 08:54:55;;;;;;;20.67;2.20;;;;;;;11.99;40.89;102907.47;5048025;28;20029;-49
2022/02/11 08:57:21;;;;;;;19.23;2.50;;;;;;;12.15;40.21;102916.88;5045789;28;20438;-48
2022/02/11 08:59:46;;;;;;;27.15;2.63;;;;;;;11.89;40.59;102922.78;5047323;28;20120;-48
2022/02/11 09:02:14;;;;;;;19.75;3.00;;;;;;;11.96;40.30;102923.94;5047670;28;20175;-47
2022/02/11 09:04:40;;;;;;;22.10;2.83;;;;;;;12.96;38.13;102934.38;5048599;28;20108;-46
2022/02/11 09:07:05;;;;;;;31.50;3.35;;;;;;;13.80;36.98;102936.19;5048636;28;20180;-47
2022/02/11 09:09:31;;;;;;;26.58;3.55;;;;;;;13.52;37.53;102945.31;5047005;28;20380;-47
2022/02/11 09:11:56;;;;;;;23.20;3.80;;;;;;;13.39;37.80;102943.78;5048494;28;20523;-47
2022/02/11 09:14:21;;;;;;;26.70;3.20;;;;;;;13.14;38.83;102947.16;5047472;28;20545;-46
2022/02/11 09:16:47;;;;;;;22.65;3.20;;;;;;;12.57;39.29;102954.38;5047480;28;20037;-48
2022/02/11 09:19:12;;;;;;;24.98;2.97;;;;;;;12.29;40.10;102962.31;5047912;28;20025;-46
2022/02/11 09:21:37;;;;;;;29.45;3.38;;;;;;;12.36;39.46;102955.38;5048527;28;20029;-48
2022/02/11 09:24:03;;;;;;;26.98;3.00;;;;;;;12.69;37.79;102962.19;5049904;28;20379;-48
2022/02/11 09:26:29;;;;;;;20.75;3.28;;;;;;;12.33;38.85;102958.34;5049949;28;20033;-46
2022/02/11 09:28:54;;;;;;;30.98;4.55;;;;;;;12.82;38.21;102979.94;5047844;28;20033;-47
2022/02/11 09:31:26;;;;;;;23.42;2.95;;;;;;;12.13;38.45;102978.22;5049145;28;20036;-47
2022/02/11 09:33:51;;;;;;;25.92;3.00;;;;;;;11.66;39.67;102984.19;5047828;28;20036;-47
2022/02/11 09:36:19;;;;;;;23.55;3.25;;;;;;;11.67;40.62;102993.16;5049111;28;20387;-49
2022/02/11 09:38:44;;;;;;;29.02;3.30;;;;;;;11.45;40.75;102995.03;5047731;28;20031;-47
2022/02/11 09:41:10;;;;;;;29.05;3.50;;;;;;;10.68;43.75;103004.34;5045177;28;20119;-47
2022/02/11 09:43:37;;;;;;;33.97;3.30;;;;;;;10.58;43.47;103016.88;5049695;28;20078;-46
2022/02/11 09:46:02;;;;;;;25.23;3.13;;;;;;;10.64;43.25;103005.59;5049676;28;20041;-48
2022/02/11 09:48:27;;;;;;;21.55;3.10;;;;;;;10.13;43.79;103016.97;5048904;28;20082;-48
2022/02/11 09:50:55;;;;;;;29.10;3.00;;;;;;;9.94;44.17;103016.78;5054378;28;20499;-46
2022/02/11 09:53:25;;;;;;;34.00;3.88;;;;;;;10.08;42.57;103021.88;5053302;28;20032;-48
2022/02/11 09:55:51;;;;;;;24.83;2.58;;;;;;;10.27;42.76;103024.81;5049732;28;20029;-48
2022/02/11 09:58:17;;;;;;;34.22;4.32;;;;;;;10.73;42.09;103020.97;5053898;28;20033;-47
2022/02/11 10:00:47;;;;;;;21.83;2.30;;;;;;;10.37;40.48;103029.44;5054016;28;20098;-46
2022/02/11 10:03:26;;;;;;;15.82;1.70;;;;;;;10.05;41.04;103036.44;5053817;28;20037;-46
2022/02/11 10:06:05;;;;;;;23.40;3.05;;;;;;;9.69;41.80;103037.59;5053294;28;20105;-46
2022/02/11 10:08:33;;;;;;;23.75;2.28;;;;;;;9.73;42.28;103041.72;5054268;28;20021;-48
2022/02/11 10:10:59;;;;;;;23.25;2.25;;;;;;;9.99;42.49;103045.00;5054145;28;20066;-48
2022/02/11 10:13:28;;;;;;;36.25;2.58;;;;;;;11.00;40.78;103043.84;5054003;28;20154;-48
2022/02/11 10:15:58;;;;;;;30.15;2.97;;;;;;;11.41;40.65;103051.06;5054158;28;20041;-49
2022/02/11 10:18:31;;;;;;;20.25;2.55;;;;;;;11.76;40.33;103062.44;5054607;28;20025;-47
2022/02/11 10:21:02;;;;;;;24.30;2.92;;;;;;;11.92;39.84;103059.28;5053619;28;20096;-47
2022/02/11 10:23:41;;;;;;;22.35;3.13;;;;;;;12.79;36.82;103070.25;5051843;28;20037;-47
2022/02/11 10:26:09;;;;;;;25.83;3.30;;;;;;;12.59;37.19;103066.69;5048312;28;20021;-47
2022/02/11 10:28:40;;;;;;;18.23;2.78;;;;;;;12.26;37.43;103076.84;5048086;28;20017;-49
2022/02/11 10:31:08;;;;;;;17.25;2.45;;;;;;;11.83;37.58;103082.50;5043043;28;20131;-47
2022/02/11 10:33:56;;;;;;;17.92;2.72;;;;;;;11.45;36.81;103080.47;5053347;28;20024;-48
2022/02/11 10:36:24;;;;;;;20.48;2.53;;;;;;;11.23;38.33;103084.16;5049927;28;20087;-51
2022/02/11 10:39:10;;;;;;;21.60;2.60;;;;;;;11.18;39.36;103092.63;5052315;28;20060;-49
2022/02/11 10:41:52;;;;;;;18.48;2.17;;;;;;;10.92;38.57;103100.22;5050311;28;20032;-48
2022/02/11 10:44:19;;;;;;;21.50;2.95;;;;;;;10.64;40.03;103107.94;5053063;28;20120;-49
2022/02/11 10:46:47;;;;;;;32.30;2.97;;;;;;;11.11;40.29;103116.56;5050148;28;20033;-50
2022/02/11 10:49:14;;;;;;;25.92;2.45;;;;;;;11.43;39.50;103103.03;5050088;28;20090;-49
2022/02/11 10:51:49;;;;;;;27.15;3.88;;;;;;;11.72;39.22;103114.97;5052781;28;20094;-48
2022/02/11 10:54:22;;;;;;;24.77;2.90;;;;;;;11.67;39.44;103118.06;5043074;28;20033;-49
2022/02/11 10:56:56;;;;;;;26.70;2.80;;;;;;;11.65;40.19;103126.28;5053264;28;20025;-49
2022/02/11 10:59:35;;;;;;;27.77;3.58;;;;;;;11.99;39.56;103128.78;5051791;28;20025;-49
2022/02/11 11:02:04;;;;;;;27.08;3.13;;;;;;;12.04;39.70;103126.53;5052553;28;20087;-51
2022/02/11 11:04:29;;;;;;;25.73;2.40;;;;;;;12.04;39.60;103131.06;5052089;28;20408;-47
2022/02/11 11:06:56;;;;;;;15.30;2.10;;;;;;;12.26;38.57;103130.00;5052523;28;20124;-49
2022/02/11 11:09:22;;;;;;;23.45;2.55;;;;;;;11.99;39.77;103127.91;5052101;28;20021;-48
2022/02/11 11:11:48;;;;;;;24.80;3.63;;;;;;;12.20;38.90;103133.25;5052774;28;20066;-49
2022/02/11 11:14:16;;;;;;;16.05;2.08;;;;;;;12.49;38.18;103136.91;5052900;28;20147;-50
2022/02/11 11:16:42;;;;;;;;;;;;;;;13.22;37.51;103141.97;5047081;28;20032;-48
2022/02/11 11:19:07;;;;;;;21.33;2.95;;;;;;;13.33;37.32;103147.25;5052755;28;20334;-48
2022/02/11 11:21:39;;;;;;;23.40;3.17;;;;;;;13.48;37.44;103150.38;5051952;28;20112;-49
2022/02/11 11:24:05;;;;;;;21.83;2.90;;;;;;;13.58;36.59;103139.50;5046488;28;20499;-48
2022/02/11 11:26:42;;;;;;;21.33;2.85;;;;;;;14.08;35.56;103146.47;5041561;28;20035;-49
2022/02/11 11:29:15;;;;;;;24.88;2.28;;;;;;;14.20;35.29;103146.16;5049740;28;20037;-47
2022/02/11 11:31:58;;;;;;;28.98;3.10;;;;;;;13.71;37.40;103150.88;5051721;28;20044;-48
2022/02/11 11:34:26;;;;;;;35.03;3.47;;;;;;;13.80;36.81;103155.41;5051403;28;20044;-47
2022/02/11 11:36:53;;;;;;;24.58;3.03;;;;;;;13.78;35.22;103156.56;5051551;28;20065;-48
2022/02/11 11:39:19;;;;;;;33.03;3.08;;;;;;;12.52;38.15;103168.19;5052140;28;20028;-48
2022/02/11 11:41:58;;;;;;;28.70;3.38;;;;;;;11.96;38.81;103161.44;5050619;28;20032;-47
2022/02/11 11:44:24;;;;;;;25.27;3.17;;;;;;;11.73;39.80;103163.38;5046835;28;20038;-47
2022/02/11 11:46:56;;;;;;;18.55;2.58;;;;;;;11.93;40.24;103160.81;5046366;28;20372;-47
2022/02/11 11:49:25;;;;;;;33.60;3.20;;;;;;;12.42;38.52;103160.03;5047392;28;20114;-51
2022/02/11 11:51:50;;;;;;;21.80;2.80;;;;;;;12.55;39.34;103157.09;5051173;28;20437;-50
2022/02/11 11:54:15;;;;;;;22.75;2.83;;;;;;;12.91;37.95;103162.84;5051529;28;20044;-48
2022/02/11 11:56:42;;;;;;;26.42;3.13;;;;;;;13.20;36.93;103162.88;5046226;28;20117;-48
2022/02/11 11:59:14;;;;;;;21.33;2.90;;;;;;;13.04;36.42;103163.44;5046625;28;20036;-47
2022/02/11 12:02:04;;;;;;;25.20;2.58;;;;;;;12.88;36.31;103164.00;5052245;28;20047;-48
2022/02/11 12:04:31;;;;;;;24.73;3.55;;;;;;;12.58;37.49;103172.16;5050670;28;20020;-48
2022/02/11 12:06:56;;;;;;;25.00;3.00;;;;;;;12.72;37.86;103169.94;5047642;28;20055;-47
2022/02/11 12:09:22;;;;;;;22.58;2.30;;;;;;;12.31;37.37;103170.94;5051861;28;20484;-49
2022/02/11 12:11:51;;;;;;;32.75;3.40;;;;;;;12.46;39.12;103172.28;5051654;28;20075;-47
2022/02/11 12:14:17;;;;;;;26.88;2.70;;;;;;;12.82;39.54;103167.28;5048754;28;20035;-47
2022/02/11 12:16:43;;;;;;;28.90;3.45;;;;;;;12.96;38.47;103166.00;5049785;28;20024;-45
2022/02/11 12:19:08;;;;;;;23.17;3.35;;;;;;;13.30;36.46;103174.56;5050355;28;20447;-46
2022/02/11 12:21:34;;;;;;;20.67;2.15;;;;;;;13.52;35.20;103172.56;5047840;28;20052;-47
2022/02/11 12:29:28;;;;;;;22.95;2.75;;;;;;;13.96;33.35;103178.31;5051271;28;20103;-48
2022/02/11 12:31:55;;;;;;;25.38;2.88;;;;;;;13.20;36.50;103178.25;5047345;28;20025;-46
2022/02/11 12:34:21;;;;;;;27.48;3.40;;;;;;;12.44;41.02;103185.06;5048720;28;20040;-46
2022/02/11 12:36:47;;;;;;;22.52;3.05;;;;;;;12.10;41.55;103191.75;5050031;28;20040;-48
2022/02/11 12:39:31;;;;;;;24.63;2.88;;;;;;;11.31;44.43;103187.66;5049294;28;20024;-48
2022/02/11 12:41:56;;;;;;;24.77;3.25;;;;;;;11.02;45.20;103203.56;5051238;28;20075;-48
2022/02/11 12:44:33;;;;;;;26.60;3.85;;;;;;;10.67;47.62;103210.00;5051034;28;20487;-48
2022/02/11 12:47:00;;;;;;;20.92;1.90;;;;;;;10.15;51.22;103216.84;5050595;28;20479;-47
2022/02/11 12:49:25;;;;;;;26.63;2.28;;;;;;;9.45;54.55;103220.44;5051210;28;20037;-47
2022/02/11 12:51:53;;;;;;;17.70;2.20;;;;;;;8.90;57.29;103213.81;5051087;28;20510;-47
2022/02/11 12:54:19;;;;;;;;;;;;;;;8.19;60.07;103234.09;5050497;28;20031;-48
2022/02/11 12:56:49;;;;;;;17.27;1.73;;;;;;;7.74;63.98;103244.34;5049740;28;19999;-47
2022/02/11 12:59:14;;;;;;;17.48;1.45;;;;;;;7.25;67.16;103235.97;5045522;28;20479;-51
2022/02/11 13:01:40;;;;;;;13.30;1.73;;;;;;;6.79;69.37;103225.59;5047358;28;20063;-50
2022/02/11 13:04:05;;;;;;;15.60;1.98;;;;;;;6.56;74.45;103212.84;5051708;28;20029;-50
2022/02/11 13:06:32;;;;;;;21.38;3.08;;;;;;;6.44;76.67;103210.94;5046880;28;20049;-51
2022/02/11 13:09:04;;;;;;;19.33;2.17;;;;;;;6.31;76.28;103209.00;5051584;28;20040;-50
2022/02/11 13:11:30;;;;;;;22.85;2.15;;;;;;;6.32;75.51;103217.94;5050156;28;20033;-50
2022/02/11 13:14:07;;;;;;;22.75;2.65;;;;;;;6.43;78.01;103217.25;5044431;28;20045;-50
2022/02/11 13:16:33;;;;;;;21.63;3.47;;;;;;;6.51;77.93;103222.97;5045195;28;20078;-49
2022/02/11 13:19:15;;;;;;;25.83;2.25;;;;;;;6.55;75.94;103217.31;5050898;28;20029;-50
2022/02/11 13:21:41;;;;;;;12.68;2.83;;;;;;;6.69;73.40;103216.44;5051348;28;20117;-50
2022/02/11 13:24:07;;;;;;;39.35;3.28;;;;;;;6.79;72.05;103222.94;5050543;28;20068;-47
2022/02/11 13:26:33;;;;;;;22.25;2.45;;;;;;;6.89;73.98;103225.00;5055553;28;20056;-50
2022/02/11 13:28:58;;;;;;;29.50;3.03;;;;;;;7.07;73.04;103226.47;5050739;28;20087;-48
2022/02/11 13:31:24;;;;;;;21.60;2.60;;;;;;;7.16;68.89;103228.56;5047566;28;20078;-51
2022/02/11 13:34:01;;;;;;;24.67;3.53;;;;;;;7.26;68.29;103218.94;5045571;28;20076;-48
2022/02/11 13:36:26;;;;;;;21.88;2.40;;;;;;;7.43;67.51;103225.00;5049471;28;20025;-48
2022/02/11 13:39:35;;;;;;;19.42;2.58;;;;;;;7.97;67.80;103226.69;5068064;28;20398;-50
2022/02/11 13:42:11;;;;;;;35.53;3.25;;;;;;;8.52;67.83;103221.00;5068136;28;20356;-48
2022/02/11 13:44:37;;;;;;;24.88;2.13;;;;;;;9.17;64.64;103224.38;5068134;28;20037;-47
2022/02/11 13:47:03;;;;;;;31.50;4.40;;;;;;;9.86;61.62;103214.59;5064758;28;20032;-47
2022/02/11 13:49:37;;;;;;;32.53;3.92;;;;;;;10.49;59.56;103227.66;5067733;28;20487;-49
2022/02/11 13:55:03;;;;;;;26.58;2.75;;;;;;;11.60;54.82;103228.31;5067848;28;20114;-47
2022/02/11 13:57:29;;;;;;;20.90;2.85;;;;;;;12.16;51.10;103231.69;5067125;28;20025;-50
2022/02/11 13:59:54;;;;;;;24.58;2.15;;;;;;;11.81;51.57;103227.47;5051885;28;20041;-50
2022/02/11 14:02:23;;;;;;;18.17;2.20;;;;;;;11.35;52.60;103232.25;5047582;28;20060;-50
2022/02/11 14:05:06;;;;;;;50.30;2.92;;;;;;;10.79;54.25;103228.84;5047116;28;20566;-47
2022/02/11 14:07:31;;;;;;;22.13;2.67;;;;;;;10.33;56.74;103234.25;5047055;28;20650;-47
2022/02/11 14:09:56;;;;;;;23.65;2.53;;;;;;;10.29;55.20;103234.59;5047584;28;20123;-49
2022/02/11 14:12:22;;;;;;;25.88;3.67;;;;;;;10.25;56.80;103228.59;5045447;28;20559;-47
2022/02/11 14:14:54;;;;;;;30.02;3.50;;;;;;;10.63;56.20;103235.47;5045363;28;20025;-50
2022/02/11 14:17:20;;;;;;;21.45;3.03;;;;;;;11.03;54.18;103236.75;5044834;28;20076;-49
2022/02/11 14:19:45;;;;;;;28.25;3.15;;;;;;;11.50;54.02;103235.47;5045516;28;20056;-48
2022/02/11 14:22:11;;;;;;;16.77;2.00;;;;;;;11.89;51.42;103246.59;5047553;28;20022;-51
2022/02/11 14:24:37;;;;;;;25.73;2.78;;;;;;;11.93;50.27;103237.25;5047140;28;20079;-48
2022/02/11 14:27:03;;;;;;;19.98;2.60;;;;;;;11.68;49.76;103237.63;5047787;28;20028;-48
2022/02/11 14:29:28;;;;;;;29.42;3.70;;;;;;;11.35;52.37;103243.03;5046904;28;20044;-50
2022/02/11 14:31:54;;;;;;;22.17;2.40;;;;;;;11.07;50.10;103249.84;5046990;28;20037;-48
2022/02/11 14:34:19;;;;;;;30.77;2.97;;;;;;;10.57;51.21;103252.13;5046099;28;20021;-46
2022/02/11 14:36:45;;;;;;;22.25;2.45;;;;;;;10.31;52.38;103252.34;5050564;28;20041;-49
2022/02/11 14:39:14;;;;;;;27.42;3.08;;;;;;;9.89;51.01;103243.94;5046931;28;20053;-49
2022/02/11 14:41:48;;;;;;;18.98;2.13;;;;;;;9.68;52.31;103248.28;5049522;28;20041;-47
2022/02/11 14:44:24;;;;;;;19.60;2.33;;;;;;;9.49;51.81;103242.59;5047261;28;20048;-47
2022/02/11 14:46:51;;;;;;;11.85;1.92;;;;;;;9.36;53.89;103245.34;5047025;28;20032;-46
2022/02/11 14:49:17;;;;;;;18.08;1.90;;;;;;;9.38;51.93;103246.94;5042153;28;20033;-48
2022/02/11 14:51:44;;;;;;;24.20;1.88;;;;;;;9.43;51.73;103257.34;5032783;28;20021;-49
2022/02/11 14:54:11;;;;;;;25.17;2.22;;;;;;;9.20;54.30;103259.06;5033400;28;20029;-48
2022/02/11 14:56:37;;;;;;;26.92;1.98;;;;;;;9.01;54.48;103273.00;5033715;28;20119;-48
2022/02/11 14:59:02;;;;;;;20.42;2.35;;;;;;;8.81;56.86;103271.75;5032480;28;20033;-49
2022/02/11 15:01:28;;;;;;;26.98;2.47;;;;;;;8.82;54.78;103265.44;5032990;28;20041;-47
2022/02/11 15:03:54;;;;;;;19.60;2.28;;;;;;;8.89;52.65;103266.69;5032904;28;20030;-48
2022/02/11 15:06:19;;;;;;;24.88;2.30;;;;;;;8.70;52.49;103267.16;5033482;28;20431;-48
2022/02/11 15:08:45;;;;;;;23.80;2.22;;;;;;;8.46;57.02;103268.91;5033655;28;20029;-48
2022/02/11 15:11:12;;;;;;;23.05;3.20;;;;;;;8.46;55.16;103264.41;5032670;28;20107;-47
2022/02/11 15:13:38;;;;;;;18.23;2.53;;;;;;;8.22;57.19;103271.47;5033011;28;20021;-50
2022/02/11 15:16:03;;;;;;;26.45;2.15;;;;;;;7.99;56.98;103271.22;5032765;28;20553;-47
2022/02/11 15:18:29;;;;;;;19.92;2.22;;;;;;;7.94;55.82;103273.34;5032704;28;20435;-49